GAF671 VABB-OPKC
Flight info
| Callsign | GAF671 |
|---|---|
| Flight time | 1h 11m |
| Altitude | 34000 |
| Route | ANOLI2A EXOLU B342 TAXUN N519 TARAB B342 SAPNA |
| Aircraft | A359/H-SDE2E3GHIJ3J4J5LM1ORWXY/LB1D1 |
Departure
| Time | 2026-05-09 09:40 |
|---|---|
| Airport | Chhatrapati Shivaji Maharaj International Airport (VABB) |
Arrival
| Time | 2026-05-09 10:51 |
|---|---|
| Airport | Jinnah International Airport (OPKC) |
| Time | Latitude | Longitude | Altitude | Speed | Heading |
|---|---|---|---|---|---|
| 2026-05-09 09:09 | 19.09251 | 72.87517 | 42 ft | 0 kts | 221° |
| 2026-05-09 09:29 | 19.09257 | 72.87523 | 39 ft | 4 kts | 221° |
| 2026-05-09 09:30 | 19.09277 | 72.87542 | 37 ft | 4 kts | 221° |
| 2026-05-09 09:30 | 19.09298 | 72.87561 | 37 ft | 4 kts | 221° |
| 2026-05-09 09:30 | 19.09317 | 72.87577 | 39 ft | 4 kts | 206° |
| 2026-05-09 09:30 | 19.09341 | 72.87583 | 40 ft | 4 kts | 166° |
| 2026-05-09 09:31 | 19.09363 | 72.87570 | 39 ft | 4 kts | 133° |
| 2026-05-09 09:31 | 19.09370 | 72.87562 | 37 ft | 0 kts | 126° |
| 2026-05-09 09:32 | 19.09372 | 72.87562 | 38 ft | 0 kts | 78° |
| 2026-05-09 09:32 | 19.09515 | 72.87350 | 40 ft | 11 kts | 284° |
| 2026-05-09 09:32 | 19.09447 | 72.87477 | 37 ft | 0 kts | 242° |
| 2026-05-09 09:33 | 19.09445 | 72.87475 | 37 ft | 1 kts | 239° |
| 2026-05-09 09:34 | 19.09414 | 72.87435 | 41 ft | 19 kts | 231° |
| 2026-05-09 09:34 | 19.09359 | 72.87378 | 41 ft | 8 kts | 208° |
| 2026-05-09 09:34 | 19.09308 | 72.87364 | 41 ft | 0 kts | 191° |
| 2026-05-09 09:36 | 19.09051 | 72.87382 | 41 ft | 13 kts | 93° |
| 2026-05-09 09:36 | 19.09054 | 72.87485 | 42 ft | 16 kts | 89° |
| 2026-05-09 09:36 | 19.09056 | 72.87616 | 42 ft | 19 kts | 89° |
| 2026-05-09 09:37 | 19.09058 | 72.87770 | 43 ft | 23 kts | 89° |
| 2026-05-09 09:37 | 19.09060 | 72.87940 | 44 ft | 14 kts | 89° |
| 2026-05-09 09:37 | 19.09061 | 72.87999 | 45 ft | 0 kts | 89° |
| 2026-05-09 09:38 | 19.09038 | 72.88042 | 45 ft | 9 kts | 148° |
| 2026-05-09 09:38 | 19.09027 | 72.88046 | 45 ft | 0 kts | 165° |
| 2026-05-09 09:38 | 19.08972 | 72.88047 | 44 ft | 25 kts | 183° |
| 2026-05-09 09:38 | 19.08890 | 72.87959 | 44 ft | 11 kts | 259° |
| 2026-05-09 09:39 | 19.08889 | 72.87933 | 44 ft | 0 kts | 269° |
| 2026-05-09 09:39 | 19.08885 | 72.87782 | 43 ft | 68 kts | 268° |
| 2026-05-09 09:39 | 19.08863 | 72.86887 | 62 ft | 171 kts | 270° |
| 2026-05-09 09:40 | 19.08822 | 72.85501 | 822 ft | 212 kts | 269° |
| 2026-05-09 09:40 | 19.08779 | 72.83760 | 1734 ft | 256 kts | 271° |
| 2026-05-09 09:40 | 19.08743 | 72.81856 | 2888 ft | 260 kts | 272° |
| 2026-05-09 09:40 | 19.08732 | 72.79916 | 3770 ft | 267 kts | 273° |
| 2026-05-09 09:41 | 19.08920 | 72.77953 | 4704 ft | 271 kts | 287° |
| 2026-05-09 09:41 | 19.09818 | 72.76207 | 5548 ft | 273 kts | 315° |
| 2026-05-09 09:41 | 19.11156 | 72.74740 | 6354 ft | 282 kts | 314° |
| 2026-05-09 09:41 | 19.12490 | 72.73188 | 7247 ft | 286 kts | 314° |
| 2026-05-09 09:42 | 19.13849 | 72.71635 | 8245 ft | 288 kts | 315° |
| 2026-05-09 09:42 | 19.15244 | 72.70095 | 9259 ft | 292 kts | 317° |
| 2026-05-09 09:42 | 19.16676 | 72.68548 | 10200 ft | 299 kts | 316° |
| 2026-05-09 09:42 | 19.18197 | 72.66924 | 10717 ft | 325 kts | 317° |
| 2026-05-09 09:43 | 19.19843 | 72.65179 | 11340 ft | 349 kts | 316° |
| 2026-05-09 09:43 | 19.21589 | 72.63330 | 12306 ft | 361 kts | 317° |
| 2026-05-09 09:43 | 19.23394 | 72.61421 | 13255 ft | 372 kts | 316° |
| 2026-05-09 09:43 | 19.25244 | 72.59463 | 14237 ft | 379 kts | 317° |
| 2026-05-09 09:44 | 19.27108 | 72.57489 | 15401 ft | 379 kts | 317° |
| 2026-05-09 09:44 | 19.28985 | 72.55504 | 16522 ft | 383 kts | 317° |
| 2026-05-09 09:44 | 19.30879 | 72.53502 | 17592 ft | 387 kts | 317° |
| 2026-05-09 09:44 | 19.32800 | 72.51470 | 18466 ft | 393 kts | 317° |
| 2026-05-09 09:45 | 19.34743 | 72.49413 | 19274 ft | 396 kts | 317° |
| 2026-05-09 09:45 | 19.36699 | 72.47342 | 20054 ft | 399 kts | 317° |
| 2026-05-09 09:45 | 19.38645 | 72.45281 | 20793 ft | 402 kts | 317° |
| 2026-05-09 09:45 | 19.40636 | 72.43172 | 21553 ft | 405 kts | 317° |
| 2026-05-09 09:46 | 19.42637 | 72.41051 | 22311 ft | 408 kts | 318° |
| 2026-05-09 09:46 | 19.44649 | 72.38917 | 23022 ft | 411 kts | 318° |
| 2026-05-09 09:46 | 19.46678 | 72.36767 | 23641 ft | 414 kts | 318° |
| 2026-05-09 09:46 | 19.48724 | 72.34596 | 24118 ft | 418 kts | 317° |
| 2026-05-09 09:47 | 19.50797 | 72.32396 | 24625 ft | 423 kts | 317° |
| 2026-05-09 09:47 | 19.52880 | 72.30184 | 25159 ft | 427 kts | 317° |
| 2026-05-09 09:47 | 19.54990 | 72.27943 | 25734 ft | 430 kts | 317° |
| 2026-05-09 09:47 | 19.57113 | 72.25687 | 26314 ft | 434 kts | 317° |
| 2026-05-09 09:48 | 19.59257 | 72.23409 | 26898 ft | 439 kts | 317° |
| 2026-05-09 09:48 | 19.61422 | 72.21106 | 27494 ft | 442 kts | 316° |
| 2026-05-09 09:48 | 19.63602 | 72.18787 | 28081 ft | 446 kts | 316° |
| 2026-05-09 09:48 | 19.65801 | 72.16446 | 28668 ft | 450 kts | 316° |
| 2026-05-09 09:49 | 19.68018 | 72.14086 | 29233 ft | 453 kts | 316° |
| 2026-05-09 09:49 | 19.70252 | 72.11705 | 29790 ft | 457 kts | 316° |
| 2026-05-09 09:49 | 19.72511 | 72.09298 | 30261 ft | 461 kts | 316° |
| 2026-05-09 09:49 | 19.74780 | 72.06879 | 30702 ft | 465 kts | 316° |
| 2026-05-09 09:50 | 19.77073 | 72.04434 | 31133 ft | 469 kts | 316° |
| 2026-05-09 09:50 | 19.79381 | 72.01971 | 31595 ft | 472 kts | 315° |
| 2026-05-09 09:50 | 19.81708 | 71.99486 | 32011 ft | 476 kts | 315° |
| 2026-05-09 09:50 | 19.84059 | 71.96976 | 32341 ft | 481 kts | 315° |
| 2026-05-09 09:51 | 19.86423 | 71.94450 | 32807 ft | 482 kts | 315° |
| 2026-05-09 09:51 | 19.88779 | 71.91931 | 33439 ft | 480 kts | 315° |
| 2026-05-09 09:51 | 19.91143 | 71.89403 | 33759 ft | 485 kts | 315° |
| 2026-05-09 09:52 | 19.95956 | 71.84253 | 33813 ft | 503 kts | 315° |
| 2026-05-09 09:52 | 20.00935 | 71.78919 | 33816 ft | 511 kts | 315° |
| 2026-05-09 09:53 | 20.05955 | 71.73537 | 33806 ft | 510 kts | 315° |
| 2026-05-09 09:53 | 20.10940 | 71.68187 | 33810 ft | 508 kts | 315° |
| 2026-05-09 09:54 | 20.15912 | 71.62846 | 33812 ft | 507 kts | 315° |
| 2026-05-09 09:54 | 20.20870 | 71.57515 | 33807 ft | 505 kts | 315° |
| 2026-05-09 09:55 | 20.25690 | 71.52124 | 33809 ft | 506 kts | 312° |
| 2026-05-09 09:55 | 20.30382 | 71.46533 | 33807 ft | 506 kts | 312° |
| 2026-05-09 09:56 | 20.35078 | 71.40937 | 33806 ft | 506 kts | 312° |
| 2026-05-09 09:56 | 20.39792 | 71.35377 | 33801 ft | 505 kts | 312° |
| 2026-05-09 09:57 | 20.44517 | 71.29825 | 33800 ft | 505 kts | 312° |
| 2026-05-09 09:57 | 20.49240 | 71.24275 | 33801 ft | 506 kts | 312° |
| 2026-05-09 09:58 | 20.53977 | 71.18699 | 33799 ft | 506 kts | 312° |
| 2026-05-09 09:58 | 20.58706 | 71.13125 | 33801 ft | 506 kts | 312° |
| 2026-05-09 09:59 | 20.63428 | 71.07554 | 33800 ft | 506 kts | 312° |
| 2026-05-09 09:59 | 20.68127 | 71.02005 | 33801 ft | 506 kts | 312° |
| 2026-05-09 10:00 | 20.72851 | 70.96421 | 33797 ft | 506 kts | 311° |
| 2026-05-09 10:00 | 20.77556 | 70.90855 | 33801 ft | 503 kts | 311° |
| 2026-05-09 10:01 | 20.82253 | 70.85291 | 33803 ft | 505 kts | 311° |
| 2026-05-09 10:01 | 20.86965 | 70.79704 | 33801 ft | 505 kts | 311° |
| 2026-05-09 10:02 | 20.91656 | 70.74136 | 33803 ft | 504 kts | 311° |
| 2026-05-09 10:02 | 20.96366 | 70.68540 | 33804 ft | 505 kts | 311° |
| 2026-05-09 10:03 | 21.01071 | 70.62944 | 33801 ft | 506 kts | 311° |
| 2026-05-09 10:03 | 21.05738 | 70.57386 | 33804 ft | 505 kts | 311° |
| 2026-05-09 10:04 | 21.10444 | 70.51778 | 33805 ft | 506 kts | 311° |
| 2026-05-09 10:04 | 21.15158 | 70.46154 | 33810 ft | 506 kts | 311° |
| 2026-05-09 10:05 | 21.19845 | 70.40558 | 33810 ft | 507 kts | 311° |
| 2026-05-09 10:05 | 21.24534 | 70.34953 | 33810 ft | 504 kts | 311° |
| 2026-05-09 10:06 | 21.29216 | 70.29351 | 33803 ft | 505 kts | 311° |
| 2026-05-09 10:06 | 21.33428 | 70.23336 | 33801 ft | 504 kts | 302° |
| 2026-05-09 10:07 | 21.37109 | 70.16935 | 33801 ft | 505 kts | 301° |
| 2026-05-09 10:07 | 21.40714 | 70.10464 | 33803 ft | 506 kts | 301° |
| 2026-05-09 10:08 | 21.44300 | 70.04019 | 33807 ft | 505 kts | 301° |
| 2026-05-09 10:08 | 21.47915 | 69.97543 | 33804 ft | 505 kts | 301° |
| 2026-05-09 10:09 | 21.51529 | 69.91076 | 33803 ft | 504 kts | 301° |
| 2026-05-09 10:09 | 21.55140 | 69.84608 | 33798 ft | 505 kts | 301° |
| 2026-05-09 10:10 | 21.58756 | 69.78122 | 33802 ft | 505 kts | 300° |
| 2026-05-09 10:10 | 21.62338 | 69.71690 | 33802 ft | 504 kts | 300° |
| 2026-05-09 10:11 | 21.66353 | 69.65502 | 33802 ft | 505 kts | 311° |
| 2026-05-09 10:11 | 21.71389 | 69.60238 | 33801 ft | 506 kts | 316° |
| 2026-05-09 10:12 | 21.75733 | 69.56006 | 33801 ft | 507 kts | 317° |
| 2026-05-09 10:12 | 21.80989 | 69.50942 | 33804 ft | 507 kts | 317° |
| 2026-05-09 10:13 | 21.86238 | 69.45853 | 33804 ft | 507 kts | 317° |
| 2026-05-09 10:13 | 21.91471 | 69.40751 | 33801 ft | 507 kts | 317° |
| 2026-05-09 10:14 | 21.96697 | 69.35642 | 33810 ft | 507 kts | 317° |
| 2026-05-09 10:14 | 22.01916 | 69.30537 | 33809 ft | 507 kts | 317° |
| 2026-05-09 10:15 | 22.07107 | 69.25454 | 33815 ft | 507 kts | 316° |
| 2026-05-09 10:15 | 22.12324 | 69.20341 | 33813 ft | 505 kts | 316° |
| 2026-05-09 10:16 | 22.17538 | 69.15226 | 33810 ft | 506 kts | 316° |
| 2026-05-09 10:16 | 22.22738 | 69.10118 | 33818 ft | 506 kts | 316° |
| 2026-05-09 10:17 | 22.27946 | 69.04998 | 33818 ft | 506 kts | 316° |
| 2026-05-09 10:17 | 22.33149 | 68.99876 | 33821 ft | 506 kts | 316° |
| 2026-05-09 10:18 | 22.38316 | 68.94785 | 33817 ft | 505 kts | 316° |
| 2026-05-09 10:18 | 22.43533 | 68.89640 | 33818 ft | 504 kts | 316° |
| 2026-05-09 10:19 | 22.48689 | 68.84549 | 33816 ft | 505 kts | 316° |
| 2026-05-09 10:19 | 22.53883 | 68.79414 | 33818 ft | 506 kts | 316° |
| 2026-05-09 10:20 | 22.59076 | 68.74277 | 33818 ft | 506 kts | 316° |
| 2026-05-09 10:20 | 22.64263 | 68.69140 | 33823 ft | 505 kts | 316° |
| 2026-05-09 10:21 | 22.69438 | 68.64008 | 33820 ft | 504 kts | 316° |
| 2026-05-09 10:21 | 22.74613 | 68.58872 | 33821 ft | 504 kts | 316° |
| 2026-05-09 10:22 | 22.79785 | 68.53732 | 33815 ft | 503 kts | 316° |
| 2026-05-09 10:22 | 22.82288 | 68.51245 | 33447 ft | 489 kts | 316° |
| 2026-05-09 10:22 | 22.84789 | 68.48756 | 32496 ft | 488 kts | 316° |
| 2026-05-09 10:22 | 22.87320 | 68.46233 | 31021 ft | 499 kts | 316° |
| 2026-05-09 10:23 | 22.89903 | 68.43658 | 29623 ft | 508 kts | 317° |
| 2026-05-09 10:23 | 22.92515 | 68.41054 | 28564 ft | 511 kts | 317° |
| 2026-05-09 10:23 | 22.95134 | 68.38443 | 28022 ft | 509 kts | 317° |
| 2026-05-09 10:23 | 22.97725 | 68.35855 | 27843 ft | 504 kts | 317° |
| 2026-05-09 10:24 | 23.00297 | 68.33283 | 27822 ft | 502 kts | 317° |
| 2026-05-09 10:24 | 23.02865 | 68.30712 | 27824 ft | 503 kts | 317° |
| 2026-05-09 10:24 | 23.05404 | 68.28170 | 27825 ft | 503 kts | 317° |
| 2026-05-09 10:24 | 23.07974 | 68.25599 | 27823 ft | 502 kts | 317° |
| 2026-05-09 10:25 | 23.10542 | 68.23032 | 27823 ft | 501 kts | 317° |
| 2026-05-09 10:25 | 23.13109 | 68.20469 | 27828 ft | 501 kts | 317° |
| 2026-05-09 10:25 | 23.15666 | 68.17914 | 27765 ft | 496 kts | 317° |
| 2026-05-09 10:25 | 23.18176 | 68.15403 | 27189 ft | 488 kts | 317° |
| 2026-05-09 10:26 | 23.20664 | 68.12909 | 26459 ft | 481 kts | 317° |
| 2026-05-09 10:26 | 23.23103 | 68.10463 | 25717 ft | 475 kts | 318° |
| 2026-05-09 10:26 | 23.25522 | 68.08035 | 24957 ft | 470 kts | 318° |
| 2026-05-09 10:26 | 23.27886 | 68.05661 | 24205 ft | 466 kts | 318° |
| 2026-05-09 10:27 | 23.30259 | 68.03277 | 23434 ft | 462 kts | 319° |
| 2026-05-09 10:27 | 23.32612 | 68.00911 | 22542 ft | 459 kts | 319° |
| 2026-05-09 10:27 | 23.34945 | 67.98565 | 21672 ft | 455 kts | 319° |
| 2026-05-09 10:27 | 23.37262 | 67.96235 | 20835 ft | 450 kts | 319° |
| 2026-05-09 10:28 | 23.39546 | 67.93935 | 20044 ft | 446 kts | 319° |
| 2026-05-09 10:28 | 23.41814 | 67.91651 | 19265 ft | 441 kts | 319° |
| 2026-05-09 10:28 | 23.44063 | 67.89385 | 18472 ft | 438 kts | 320° |
| 2026-05-09 10:28 | 23.46384 | 67.87279 | 17630 ft | 432 kts | 327° |
| 2026-05-09 10:29 | 23.48980 | 67.85695 | 16764 ft | 423 kts | 339° |
| 2026-05-09 10:29 | 23.51762 | 67.84777 | 15958 ft | 415 kts | 352° |
| 2026-05-09 10:29 | 23.54615 | 67.84538 | 15292 ft | 406 kts | 4° |
| 2026-05-09 10:29 | 23.57358 | 67.84939 | 14930 ft | 402 kts | 15° |
| 2026-05-09 10:30 | 23.60006 | 67.85887 | 14822 ft | 400 kts | 21° |
| 2026-05-09 10:30 | 23.62750 | 67.86458 | 14819 ft | 404 kts | 5° |
| 2026-05-09 10:30 | 23.65555 | 67.86211 | 14820 ft | 408 kts | 349° |
| 2026-05-09 10:30 | 23.68281 | 67.85253 | 14821 ft | 413 kts | 341° |
| 2026-05-09 10:31 | 23.70987 | 67.84126 | 14823 ft | 419 kts | 341° |
| 2026-05-09 10:31 | 23.73713 | 67.82964 | 14818 ft | 422 kts | 341° |
| 2026-05-09 10:31 | 23.76440 | 67.81757 | 14817 ft | 423 kts | 340° |
| 2026-05-09 10:31 | 23.79156 | 67.80525 | 14818 ft | 423 kts | 340° |
| 2026-05-09 10:32 | 23.81835 | 67.79293 | 14820 ft | 423 kts | 339° |
| 2026-05-09 10:32 | 23.84578 | 67.78022 | 14818 ft | 423 kts | 339° |
| 2026-05-09 10:32 | 23.87236 | 67.76785 | 14654 ft | 417 kts | 339° |
| 2026-05-09 10:32 | 23.89875 | 67.75552 | 13988 ft | 411 kts | 339° |
| 2026-05-09 10:33 | 23.92483 | 67.74333 | 13206 ft | 405 kts | 339° |
| 2026-05-09 10:33 | 23.95061 | 67.73126 | 12336 ft | 401 kts | 339° |
| 2026-05-09 10:33 | 23.97599 | 67.71937 | 11511 ft | 396 kts | 340° |
| 2026-05-09 10:33 | 23.99843 | 67.70887 | 10773 ft | 393 kts | 339° |
| 2026-05-09 10:34 | 24.01747 | 67.69993 | 10300 ft | 390 kts | 340° |
| 2026-05-09 10:34 | 24.06760 | 67.67646 | 9818 ft | 392 kts | 339° |
| 2026-05-09 10:34 | 24.09247 | 67.66478 | 9693 ft | 380 kts | 340° |
| 2026-05-09 10:35 | 24.11610 | 67.65362 | 9452 ft | 360 kts | 339° |
| 2026-05-09 10:35 | 24.13842 | 67.64388 | 9310 ft | 339 kts | 344° |
| 2026-05-09 10:35 | 24.16035 | 67.63613 | 9062 ft | 323 kts | 345° |
| 2026-05-09 10:35 | 24.18130 | 67.62894 | 8817 ft | 310 kts | 346° |
| 2026-05-09 10:36 | 24.20156 | 67.62214 | 8571 ft | 299 kts | 347° |
| 2026-05-09 10:36 | 24.22134 | 67.61558 | 8320 ft | 296 kts | 347° |
| 2026-05-09 10:36 | 24.24105 | 67.60915 | 8071 ft | 295 kts | 346° |
| 2026-05-09 10:36 | 24.26066 | 67.60276 | 7877 ft | 293 kts | 346° |
| 2026-05-09 10:37 | 24.28023 | 67.59637 | 7814 ft | 294 kts | 346° |
| 2026-05-09 10:37 | 24.29979 | 67.59001 | 7809 ft | 293 kts | 345° |
| 2026-05-09 10:37 | 24.31938 | 67.58362 | 7806 ft | 293 kts | 346° |
| 2026-05-09 10:37 | 24.33892 | 67.57724 | 7810 ft | 295 kts | 346° |
| 2026-05-09 10:38 | 24.35916 | 67.57066 | 7813 ft | 311 kts | 346° |
| 2026-05-09 10:38 | 24.38012 | 67.56383 | 7809 ft | 317 kts | 346° |
| 2026-05-09 10:38 | 24.40128 | 67.55695 | 7804 ft | 318 kts | 346° |
| 2026-05-09 10:38 | 24.42245 | 67.55005 | 7803 ft | 317 kts | 346° |
| 2026-05-09 10:39 | 24.44362 | 67.54314 | 7807 ft | 316 kts | 345° |
| 2026-05-09 10:39 | 24.46445 | 67.53633 | 7813 ft | 316 kts | 345° |
| 2026-05-09 10:39 | 24.48550 | 67.52945 | 7813 ft | 316 kts | 346° |
| 2026-05-09 10:39 | 24.50664 | 67.52256 | 7808 ft | 316 kts | 345° |
| 2026-05-09 10:40 | 24.52772 | 67.51568 | 7808 ft | 317 kts | 345° |
| 2026-05-09 10:40 | 24.54885 | 67.50876 | 7809 ft | 317 kts | 345° |
| 2026-05-09 10:40 | 24.57001 | 67.50185 | 7811 ft | 317 kts | 345° |
| 2026-05-09 10:40 | 24.59117 | 67.49493 | 7799 ft | 317 kts | 345° |
| 2026-05-09 10:41 | 24.61209 | 67.48808 | 7365 ft | 312 kts | 344° |
| 2026-05-09 10:41 | 24.63301 | 67.48123 | 6712 ft | 315 kts | 344° |
| 2026-05-09 10:41 | 24.65409 | 67.47433 | 6117 ft | 316 kts | 345° |
| 2026-05-09 10:41 | 24.67522 | 67.46742 | 5519 ft | 317 kts | 343° |
| 2026-05-09 10:42 | 24.69619 | 67.46056 | 5053 ft | 312 kts | 343° |
| 2026-05-09 10:42 | 24.71630 | 67.45400 | 4736 ft | 291 kts | 342° |
| 2026-05-09 10:42 | 24.73504 | 67.44789 | 4330 ft | 272 kts | 341° |
| 2026-05-09 10:42 | 24.75279 | 67.44209 | 3752 ft | 262 kts | 340° |
| 2026-05-09 10:43 | 24.76993 | 67.43643 | 3262 ft | 252 kts | 341° |
| 2026-05-09 10:43 | 24.78660 | 67.43096 | 3042 ft | 248 kts | 341° |
| 2026-05-09 10:43 | 24.80311 | 67.42557 | 3003 ft | 249 kts | 340° |
| 2026-05-09 10:43 | 24.81972 | 67.42009 | 3001 ft | 247 kts | 341° |
| 2026-05-09 10:44 | 24.83621 | 67.41465 | 3010 ft | 249 kts | 339° |
| 2026-05-09 10:44 | 24.85310 | 67.40908 | 3010 ft | 260 kts | 339° |
| 2026-05-09 10:44 | 24.87077 | 67.40323 | 3010 ft | 269 kts | 340° |
| 2026-05-09 10:44 | 24.88875 | 67.39736 | 2979 ft | 271 kts | 340° |
| 2026-05-09 10:45 | 24.90668 | 67.39198 | 2921 ft | 267 kts | 342° |
| 2026-05-09 10:46 | 24.95277 | 67.35062 | 2466 ft | 207 kts | 260° |
| 2026-05-09 10:46 | 24.94971 | 67.33604 | 2338 ft | 183 kts | 256° |
| 2026-05-09 10:46 | 24.94631 | 67.32334 | 2230 ft | 163 kts | 255° |
| 2026-05-09 10:46 | 24.94341 | 67.31201 | 2090 ft | 143 kts | 255° |
| 2026-05-09 10:47 | 24.94091 | 67.30215 | 2024 ft | 129 kts | 255° |
| 2026-05-09 10:47 | 24.93852 | 67.29258 | 2008 ft | 131 kts | 255° |
| 2026-05-09 10:47 | 24.93609 | 67.28282 | 1998 ft | 135 kts | 254° |
| 2026-05-09 10:47 | 24.93352 | 67.27258 | 1842 ft | 139 kts | 253° |
| 2026-05-09 10:48 | 24.93097 | 67.26249 | 1682 ft | 136 kts | 253° |
| 2026-05-09 10:48 | 24.92845 | 67.25260 | 1493 ft | 133 kts | 255° |
| 2026-05-09 10:48 | 24.92597 | 67.24276 | 1332 ft | 134 kts | 255° |
| 2026-05-09 10:48 | 24.92347 | 67.23284 | 1177 ft | 136 kts | 253° |
| 2026-05-09 10:49 | 24.92096 | 67.22294 | 998 ft | 132 kts | 251° |
| 2026-05-09 10:49 | 24.91844 | 67.21302 | 833 ft | 137 kts | 251° |
| 2026-05-09 10:49 | 24.91586 | 67.20284 | 654 ft | 137 kts | 255° |
| 2026-05-09 10:49 | 24.91338 | 67.19301 | 469 ft | 129 kts | 255° |
| 2026-05-09 10:50 | 24.91108 | 67.18396 | 305 ft | 120 kts | 253° |
| 2026-05-09 10:50 | 24.90891 | 67.17510 | 144 ft | 119 kts | 252° |
| 2026-05-09 10:50 | 24.90675 | 67.16698 | 105 ft | 94 kts | 254° |
| 2026-05-09 10:50 | 24.90532 | 67.16140 | 107 ft | 57 kts | 254° |
| 2026-05-09 10:51 | 24.90436 | 67.15805 | 104 ft | 36 kts | 235° |
| 2026-05-09 10:51 | 24.90349 | 67.15777 | 102 ft | 16 kts | 170° |
| 2026-05-09 10:51 | 24.90312 | 67.15786 | 102 ft | 0 kts | 168° |
| 2026-05-09 10:51 | 24.90282 | 67.15797 | 104 ft | 15 kts | 155° |
| 2026-05-09 10:52 | 24.90263 | 67.15839 | 103 ft | 16 kts | 96° |
| 2026-05-09 10:52 | 24.90291 | 67.15965 | 103 ft | 19 kts | 75° |
| 2026-05-09 10:52 | 24.90329 | 67.16121 | 104 ft | 23 kts | 75° |
| 2026-05-09 10:52 | 24.90356 | 67.16224 | 105 ft | 12 kts | 73° |
| 2026-05-09 10:53 | 24.90359 | 67.16312 | 106 ft | 9 kts | 116° |
| 2026-05-09 10:53 | 24.90317 | 67.16370 | 105 ft | 11 kts | 135° |
| 2026-05-09 10:53 | 24.90261 | 67.16446 | 106 ft | 14 kts | 123° |
| 2026-05-09 10:53 | 24.90251 | 67.16462 | 106 ft | 0 kts | 124° |
| 2026-05-09 10:54 | 24.90224 | 67.16507 | 106 ft | 1 kts | 126° |
| 2026-05-09 10:54 | 24.90211 | 67.16526 | 106 ft | 0 kts | 125° |
| 2026-05-09 10:54 | 24.90210 | 67.16528 | 107 ft | 1 kts | 125° |